createdAt,value
2022-10-05T00:00:45.495Z,16.40
2022-10-05T00:03:14.775Z,16.40
2022-10-05T00:05:44.310Z,16.30
2022-10-05T00:08:15.373Z,16.40
2022-10-05T00:10:44.299Z,16.40
2022-10-05T00:13:16.250Z,16.40
2022-10-05T00:15:44.250Z,16.40
2022-10-05T00:18:16.886Z,16.40
2022-10-05T00:20:45.639Z,16.40
2022-10-05T00:23:19.279Z,16.40
2022-10-05T00:25:47.623Z,16.40
2022-10-05T00:28:19.590Z,16.30
2022-10-05T00:30:47.654Z,16.30
2022-10-05T00:33:16.784Z,16.30
2022-10-05T00:35:44.582Z,16.30
2022-10-05T00:38:12.862Z,16.30
2022-10-05T00:40:53.628Z,16.30
2022-10-05T00:43:44.614Z,16.30
2022-10-05T00:46:18.682Z,16.30
2022-10-05T00:48:55.781Z,16.30
2022-10-05T00:51:26.821Z,16.30
2022-10-05T00:54:20.850Z,16.30
2022-10-05T00:57:16.766Z,16.30
2022-10-05T00:59:55.779Z,16.20
2022-10-05T01:02:35.965Z,16.20
2022-10-05T01:05:13.340Z,16.20
2022-10-05T01:07:49.318Z,16.10
2022-10-05T01:10:26.145Z,16.10
2022-10-05T01:13:03.824Z,16.10
2022-10-05T01:15:37.299Z,16.10
2022-10-05T01:18:13.319Z,16.10
2022-10-05T01:20:52.540Z,16.10
2022-10-05T01:23:42.117Z,16.10
2022-10-05T01:26:27.918Z,16.10
2022-10-05T01:29:03.346Z,16.10
2022-10-05T01:31:39.009Z,16.10
2022-10-05T01:34:13.733Z,16.10
2022-10-05T01:36:49.928Z,16.10
2022-10-05T01:39:26.517Z,16.10
2022-10-05T01:42:00.955Z,16.10
2022-10-05T01:44:37.238Z,16.10
2022-10-05T01:47:11.415Z,16.10
2022-10-05T01:49:47.016Z,16.10
2022-10-05T01:52:27.756Z,16.10
2022-10-05T01:55:07.079Z,16.10
2022-10-05T01:57:47.754Z,16.00
2022-10-05T02:00:19.602Z,16.00
2022-10-05T02:02:49.661Z,16.00
2022-10-05T02:05:22.051Z,16.00
2022-10-05T02:07:54.567Z,16.00
2022-10-05T02:10:27.189Z,16.00
2022-10-05T02:13:01.710Z,16.00
2022-10-05T02:15:41.525Z,16.00
2022-10-05T02:18:15.097Z,15.90
2022-10-05T02:20:45.685Z,15.90
2022-10-05T02:23:20.091Z,15.90
2022-10-05T02:25:50.385Z,15.90
2022-10-05T02:28:24.003Z,15.90
2022-10-05T02:30:56.457Z,15.90
2022-10-05T02:33:28.813Z,15.90
2022-10-05T02:36:01.816Z,15.90
2022-10-05T02:38:38.922Z,15.90
2022-10-05T02:41:14.305Z,16.00
2022-10-05T02:43:54.216Z,15.90
2022-10-05T02:46:32.674Z,15.90
2022-10-05T02:49:13.627Z,15.90
2022-10-05T02:51:50.147Z,15.90
2022-10-05T02:54:28.942Z,15.90
2022-10-05T02:57:02.263Z,15.90
2022-10-05T02:59:35.018Z,15.90
2022-10-05T03:02:12.294Z,15.90
2022-10-05T03:04:46.380Z,15.90
2022-10-05T03:07:18.614Z,15.90
2022-10-05T03:09:56.634Z,15.90
2022-10-05T03:12:43.747Z,15.90
2022-10-05T03:15:23.900Z,15.90
2022-10-05T03:17:58.238Z,15.90
2022-10-05T03:20:36.211Z,15.90
2022-10-05T03:23:05.839Z,15.90
2022-10-05T03:25:57.134Z,15.90
2022-10-05T03:28:30.088Z,16.00
2022-10-05T03:31:04.103Z,16.00
2022-10-05T03:33:41.894Z,15.90
2022-10-05T03:36:18.251Z,15.90
2022-10-05T03:38:55.662Z,15.90
2022-10-05T03:41:28.599Z,15.90
2022-10-05T03:44:25.770Z,15.90
2022-10-05T03:47:06.305Z,15.90
2022-10-05T03:49:49.001Z,15.90
2022-10-05T03:52:21.993Z,15.90
2022-10-05T03:54:53.877Z,15.90
2022-10-05T03:57:24.948Z,15.90
2022-10-05T04:00:01.528Z,15.90
2022-10-05T04:02:33.667Z,16.10
2022-10-05T04:05:13.214Z,15.90
2022-10-05T04:07:44.439Z,15.90
2022-10-05T04:10:18.497Z,15.90
2022-10-05T04:12:51.956Z,15.90
2022-10-05T04:15:28.527Z,15.90
2022-10-05T04:18:00.994Z,15.90
2022-10-05T04:20:35.679Z,15.90
2022-10-05T04:23:13.939Z,15.90
2022-10-05T04:25:45.433Z,15.90
2022-10-05T04:28:21.161Z,15.90
2022-10-05T04:30:52.241Z,15.90
2022-10-05T04:33:21.526Z,15.90
2022-10-05T04:36:08.507Z,15.90
2022-10-05T04:38:53.609Z,15.90
2022-10-05T04:41:57.441Z,15.90
2022-10-05T04:44:44.711Z,15.90
2022-10-05T04:47:29.270Z,15.90
2022-10-05T04:50:21.883Z,15.90
2022-10-05T04:53:07.831Z,15.90
2022-10-05T04:55:45.551Z,15.90
2022-10-05T04:58:25.261Z,15.80
2022-10-05T05:01:06.975Z,15.90
2022-10-05T05:03:56.174Z,15.90
2022-10-05T05:06:33.496Z,15.90
2022-10-05T05:09:29.377Z,15.80
2022-10-05T05:12:09.924Z,15.80
2022-10-05T05:14:55.702Z,15.80
2022-10-05T05:17:42.026Z,15.80
2022-10-05T05:20:21.511Z,15.80
2022-10-05T05:22:54.894Z,15.80
2022-10-05T05:25:40.900Z,15.80
2022-10-05T05:28:20.023Z,15.80
2022-10-05T05:30:53.295Z,15.80
2022-10-05T05:33:24.175Z,15.80
2022-10-05T05:36:25.566Z,15.80
2022-10-05T05:39:09.238Z,15.80
2022-10-05T05:41:40.138Z,15.80
2022-10-05T05:44:20.600Z,15.80
2022-10-05T05:47:04.015Z,15.70
2022-10-05T05:49:42.885Z,15.80
2022-10-05T05:52:19.058Z,15.90
2022-10-05T05:54:51.868Z,15.80
2022-10-05T05:57:27.186Z,15.80
2022-10-05T06:00:04.353Z,15.80
2022-10-05T06:02:40.012Z,15.80
2022-10-05T06:05:19.322Z,15.80
2022-10-05T06:07:47.128Z,15.80
2022-10-05T06:10:22.711Z,15.80
2022-10-05T06:13:00.852Z,15.80
2022-10-05T06:15:34.841Z,15.90
2022-10-05T06:18:10.675Z,15.90
2022-10-05T06:20:42.826Z,15.90
2022-10-05T06:23:18.407Z,15.90
2022-10-05T06:25:59.578Z,15.90
2022-10-05T06:28:30.678Z,15.90
2022-10-05T06:31:08.225Z,15.80
2022-10-05T06:33:47.497Z,15.90
2022-10-05T06:36:39.033Z,15.90
2022-10-05T06:39:35.445Z,16.00
2022-10-05T06:42:20.710Z,15.90
2022-10-05T06:44:56.846Z,15.90
2022-10-05T06:47:32.285Z,15.90
2022-10-05T06:50:13.792Z,16.00
2022-10-05T06:52:59.647Z,16.00
2022-10-05T06:55:35.831Z,16.00
2022-10-05T06:58:27.721Z,16.00
2022-10-05T07:01:02.008Z,16.00
2022-10-05T07:03:47.979Z,16.00
2022-10-05T07:06:17.808Z,16.10
2022-10-05T07:09:02.136Z,16.10
2022-10-05T07:11:54.368Z,16.10
2022-10-05T07:14:39.370Z,16.10
2022-10-05T07:17:26.187Z,16.00
2022-10-05T07:20:03.860Z,16.10
2022-10-05T07:22:49.746Z,16.10
2022-10-05T07:25:22.455Z,16.10
2022-10-05T07:27:55.762Z,16.20
2022-10-05T07:30:25.934Z,16.20
2022-10-05T07:33:02.138Z,16.20
2022-10-05T07:36:00.053Z,16.30
2022-10-05T07:38:32.915Z,16.30
2022-10-05T07:41:06.380Z,16.20
2022-10-05T07:44:00.864Z,16.30
2022-10-05T07:46:36.727Z,16.30
2022-10-05T07:49:15.576Z,16.30
2022-10-05T07:51:49.262Z,16.30
2022-10-05T07:54:23.167Z,16.30
2022-10-05T07:56:56.524Z,16.30
2022-10-05T07:59:31.847Z,16.30
2022-10-05T08:02:07.774Z,16.40
2022-10-05T08:04:46.103Z,16.40
2022-10-05T08:07:17.803Z,16.40
2022-10-05T08:09:53.145Z,16.40
2022-10-05T08:12:28.535Z,16.40
2022-10-05T08:14:58.919Z,16.40
2022-10-05T08:17:50.417Z,16.50
2022-10-05T08:20:30.769Z,16.50
2022-10-05T08:23:05.073Z,16.50
2022-10-05T08:25:42.410Z,16.50
2022-10-05T08:28:18.576Z,16.50
2022-10-05T08:30:56.356Z,16.60
2022-10-05T08:33:27.500Z,16.60
2022-10-05T08:36:05.563Z,16.60
2022-10-05T08:38:34.770Z,16.60
2022-10-05T08:41:37.727Z,16.60
2022-10-05T08:44:45.741Z,16.60
2022-10-05T08:47:25.484Z,16.70
2022-10-05T08:50:18.983Z,16.70
2022-10-05T08:53:14.861Z,16.80
2022-10-05T08:56:00.131Z,16.90
2022-10-05T08:58:44.375Z,16.90
2022-10-05T09:01:22.035Z,17.00
2022-10-05T09:04:17.797Z,17.00
2022-10-05T09:07:09.258Z,17.10
2022-10-05T09:10:09.184Z,17.20
2022-10-05T09:13:16.407Z,17.20
2022-10-05T09:16:19.307Z,17.30
2022-10-05T09:19:01.816Z,17.40
2022-10-05T09:21:43.789Z,17.40
2022-10-05T09:24:28.598Z,17.50
2022-10-05T09:27:10.942Z,17.50
2022-10-05T09:30:15.030Z,17.60
2022-10-05T09:33:14.574Z,17.60
2022-10-05T09:36:19.969Z,17.70
2022-10-05T09:39:21.924Z,17.70
2022-10-05T09:42:22.825Z,17.70
2022-10-05T09:45:21.468Z,17.80
2022-10-05T09:48:07.622Z,17.80
2022-10-05T09:51:11.590Z,17.80
2022-10-05T09:54:17.056Z,17.80
2022-10-05T09:57:11.929Z,17.90
2022-10-05T10:03:08.183Z,17.90
2022-10-05T10:06:20.671Z,17.90
2022-10-05T10:09:05.282Z,17.90
2022-10-05T10:11:44.885Z,17.90
2022-10-05T10:14:37.090Z,17.90
2022-10-05T10:17:22.963Z,17.90
2022-10-05T10:20:25.626Z,17.80
2022-10-05T10:23:25.030Z,17.80
2022-10-05T10:26:16.258Z,17.80
2022-10-05T10:29:00.430Z,17.80
2022-10-05T10:31:50.456Z,17.70
2022-10-05T10:34:55.249Z,17.70
2022-10-05T10:37:57.808Z,17.70
2022-10-05T10:40:39.466Z,17.70
2022-10-05T10:43:33.922Z,17.80
2022-10-05T10:46:14.810Z,17.70
2022-10-05T10:48:57.925Z,17.70
2022-10-05T10:51:57.090Z,17.70
2022-10-05T10:54:41.161Z,17.70
2022-10-05T10:57:15.098Z,17.70
2022-10-05T11:00:06.627Z,17.70
2022-10-05T11:03:00.680Z,17.80
2022-10-05T11:05:52.576Z,17.80
2022-10-05T11:08:50.020Z,17.90
2022-10-05T11:11:46.098Z,17.90
2022-10-05T11:14:46.891Z,17.90
2022-10-05T11:17:29.324Z,17.90
2022-10-05T11:20:18.810Z,17.90
2022-10-05T11:22:58.750Z,17.90
2022-10-05T11:25:48.074Z,17.90
2022-10-05T11:28:43.793Z,17.90
2022-10-05T11:31:36.621Z,18.00
2022-10-05T11:34:31.326Z,18.00
2022-10-05T11:37:36.926Z,18.00
2022-10-05T11:40:47.649Z,18.00
2022-10-05T11:43:42.311Z,18.00
2022-10-05T11:46:18.129Z,18.00
2022-10-05T11:49:10.573Z,18.10
2022-10-05T11:51:46.416Z,18.10
2022-10-05T11:54:32.530Z,18.10
2022-10-05T11:57:10.115Z,18.10
2022-10-05T11:59:44.195Z,18.10
2022-10-05T12:02:42.924Z,18.10
2022-10-05T12:05:21.357Z,18.20
2022-10-05T12:08:01.634Z,18.20
2022-10-05T12:10:35.748Z,18.20
2022-10-05T12:13:13.178Z,18.20
2022-10-05T12:15:48.398Z,18.30
2022-10-05T12:18:23.813Z,18.30
2022-10-05T12:21:00.169Z,18.40
2022-10-05T12:23:35.572Z,18.40
2022-10-05T12:26:08.075Z,18.40
2022-10-05T12:28:42.342Z,18.30
2022-10-05T12:31:26.754Z,18.40
2022-10-05T12:34:03.369Z,18.40
2022-10-05T12:37:02.961Z,18.40
2022-10-05T12:39:37.097Z,18.40
2022-10-05T12:42:16.863Z,18.50
2022-10-05T12:45:18.328Z,18.50
2022-10-05T12:48:13.256Z,18.60
2022-10-05T12:50:44.606Z,18.70
2022-10-05T12:53:31.487Z,18.80
2022-10-05T12:56:05.804Z,18.70
2022-10-05T12:58:45.239Z,18.70
2022-10-05T13:01:23.075Z,18.70
2022-10-05T13:03:56.354Z,18.70
2022-10-05T13:06:30.773Z,18.70
2022-10-05T13:09:10.554Z,18.80
2022-10-05T13:11:46.419Z,18.80
2022-10-05T13:14:36.402Z,18.90
2022-10-05T13:17:11.667Z,18.90
2022-10-05T13:19:44.521Z,19.00
2022-10-05T13:22:31.825Z,19.00
2022-10-05T13:25:18.043Z,19.10
2022-10-05T13:27:50.917Z,19.10
2022-10-05T13:30:21.152Z,19.10
2022-10-05T13:32:57.103Z,19.00
2022-10-05T13:35:52.316Z,19.10
2022-10-05T13:38:34.156Z,19.00
2022-10-05T13:41:16.434Z,19.00
2022-10-05T13:44:00.300Z,19.00
2022-10-05T13:46:38.966Z,19.00
2022-10-05T13:49:23.879Z,19.20
2022-10-05T13:52:01.380Z,19.10
2022-10-05T13:54:38.620Z,19.10
2022-10-05T13:57:21.376Z,19.10
2022-10-05T13:59:54.758Z,19.20
2022-10-05T14:02:28.298Z,19.10
2022-10-05T14:05:00.727Z,19.10
2022-10-05T14:07:34.280Z,19.00
2022-10-05T14:10:04.512Z,19.00
2022-10-05T14:12:41.725Z,19.10
2022-10-05T14:15:22.168Z,19.10
2022-10-05T14:17:51.311Z,18.90
2022-10-05T14:20:23.954Z,19.00
2022-10-05T14:22:56.495Z,19.00
2022-10-05T14:25:25.084Z,19.10
2022-10-05T14:28:00.044Z,19.10
2022-10-05T14:30:29.502Z,19.00
2022-10-05T14:33:07.070Z,19.00
2022-10-05T14:35:48.968Z,19.00
2022-10-05T14:38:22.683Z,19.00
2022-10-05T14:41:15.708Z,19.00
2022-10-05T14:43:52.782Z,19.00
2022-10-05T14:46:29.346Z,19.00
2022-10-05T14:49:22.350Z,19.00
2022-10-05T14:51:51.366Z,19.00
2022-10-05T14:54:29.962Z,19.00
2022-10-05T14:57:15.342Z,18.90
2022-10-05T15:00:00.049Z,18.90
2022-10-05T15:02:52.488Z,18.90
2022-10-05T15:05:31.355Z,18.90
2022-10-05T15:08:06.369Z,18.90
2022-10-05T15:10:41.871Z,18.90
2022-10-05T15:13:15.593Z,18.80
2022-10-05T15:15:51.943Z,18.80
2022-10-05T15:18:32.022Z,18.80
2022-10-05T15:21:13.501Z,18.80
2022-10-05T15:23:47.266Z,18.80
2022-10-05T15:26:30.713Z,18.80
2022-10-05T15:29:07.967Z,18.70
2022-10-05T15:31:44.197Z,18.70
2022-10-05T15:34:18.920Z,18.70
2022-10-05T15:36:52.472Z,18.70
2022-10-05T15:39:30.125Z,18.60
2022-10-05T15:42:01.943Z,18.60
2022-10-05T15:44:49.150Z,18.60
2022-10-05T15:47:23.901Z,18.60
2022-10-05T15:50:03.024Z,18.60
2022-10-05T15:52:37.254Z,18.50
2022-10-05T15:55:36.605Z,18.50
2022-10-05T15:58:23.662Z,18.50
2022-10-05T16:00:58.684Z,18.40
2022-10-05T16:03:37.366Z,18.30
2022-10-05T16:06:45.446Z,18.30
2022-10-05T16:09:24.962Z,18.30
2022-10-05T16:12:03.038Z,18.30
2022-10-05T16:14:40.417Z,18.40
2022-10-05T16:17:35.623Z,18.30
2022-10-05T16:20:30.345Z,18.30
2022-10-05T16:23:06.164Z,18.30
2022-10-05T16:25:47.358Z,18.20
2022-10-05T16:28:27.096Z,18.20
2022-10-05T16:31:01.268Z,18.20
2022-10-05T16:33:44.516Z,18.10
2022-10-05T16:36:23.576Z,18.10
2022-10-05T16:39:00.636Z,18.20
2022-10-05T16:41:35.542Z,18.20
2022-10-05T16:44:15.760Z,18.10
2022-10-05T16:46:52.812Z,18.10
2022-10-05T16:49:33.557Z,18.10
2022-10-05T16:52:06.615Z,18.00
2022-10-05T16:54:39.074Z,18.00
2022-10-05T16:57:13.949Z,18.00
2022-10-05T17:00:13.375Z,18.00
2022-10-05T17:02:57.963Z,17.90
2022-10-05T17:06:16.657Z,17.90
2022-10-05T17:09:07.131Z,18.00
2022-10-05T17:11:48.182Z,17.90
2022-10-05T17:14:26.893Z,17.90
2022-10-05T17:17:17.112Z,17.90
2022-10-05T17:19:53.169Z,17.90
2022-10-05T17:22:27.848Z,17.90
2022-10-05T17:25:04.667Z,17.90
2022-10-05T17:27:51.025Z,17.90
2022-10-05T17:30:51.479Z,17.90
2022-10-05T17:33:26.926Z,17.90
2022-10-05T17:36:12.316Z,17.80
2022-10-05T17:38:52.115Z,17.80
2022-10-05T17:41:24.336Z,17.80
2022-10-05T17:44:19.278Z,17.80
2022-10-05T17:46:49.635Z,17.80
2022-10-05T17:49:40.631Z,17.80
2022-10-05T17:52:42.542Z,17.80
2022-10-05T17:55:30.370Z,17.90
2022-10-05T17:58:01.593Z,17.80
2022-10-05T18:00:43.592Z,17.80
2022-10-05T18:03:40.968Z,17.90
2022-10-05T18:06:37.279Z,17.80
2022-10-05T18:09:33.087Z,17.90
2022-10-05T18:12:11.637Z,17.90
2022-10-05T18:15:00.563Z,17.90
2022-10-05T18:17:58.639Z,17.90
2022-10-05T18:20:32.266Z,17.90
2022-10-05T18:23:29.990Z,17.90
2022-10-05T18:26:06.549Z,17.90
2022-10-05T18:28:46.508Z,17.90
2022-10-05T18:31:26.159Z,18.00
2022-10-05T18:34:23.620Z,18.00
2022-10-05T18:37:16.112Z,18.00
2022-10-05T18:40:02.154Z,18.00
2022-10-05T18:42:40.197Z,18.00
2022-10-05T18:45:23.309Z,18.00
2022-10-05T18:48:02.429Z,18.00
2022-10-05T18:50:40.849Z,17.90
2022-10-05T18:53:18.581Z,17.80
2022-10-05T18:55:53.893Z,17.80
2022-10-05T18:58:30.888Z,17.70
2022-10-05T19:01:28.003Z,17.70
2022-10-05T19:04:05.947Z,17.70
2022-10-05T19:06:39.468Z,17.60
2022-10-05T19:09:21.715Z,17.50
2022-10-05T19:11:57.745Z,17.60
2022-10-05T19:14:37.588Z,17.60
2022-10-05T19:17:21.473Z,17.50
2022-10-05T19:20:09.237Z,17.40
2022-10-05T19:22:52.862Z,17.30
2022-10-05T19:25:29.411Z,17.10
2022-10-05T19:28:08.597Z,17.00
2022-10-05T19:30:50.836Z,16.70
2022-10-05T19:33:32.261Z,16.50
2022-10-05T19:36:17.469Z,16.40
2022-10-05T19:38:55.084Z,16.30
2022-10-05T19:41:31.069Z,16.20
2022-10-05T19:44:17.735Z,16.20
2022-10-05T19:46:59.534Z,16.10
2022-10-05T19:49:48.379Z,16.10
2022-10-05T19:52:26.070Z,16.10
2022-10-05T19:55:12.080Z,16.10
2022-10-05T19:57:51.509Z,16.10
2022-10-05T20:00:24.668Z,16.10
2022-10-05T20:02:53.258Z,16.10
2022-10-05T20:05:21.406Z,16.10
2022-10-05T20:07:50.553Z,16.00
2022-10-05T20:10:29.220Z,16.10
2022-10-05T20:13:43.520Z,16.10
2022-10-05T20:16:45.934Z,16.10
2022-10-05T20:19:55.678Z,16.00
2022-10-05T20:22:36.490Z,16.00
2022-10-05T20:25:08.054Z,16.10
2022-10-05T20:27:46.853Z,16.00
2022-10-05T20:30:22.105Z,16.00
2022-10-05T20:32:57.585Z,16.00
2022-10-05T20:35:27.823Z,16.00
2022-10-05T20:38:00.169Z,16.10
2022-10-05T20:40:30.286Z,16.00
2022-10-05T20:42:58.895Z,16.00
2022-10-05T20:45:26.903Z,15.80
2022-10-05T20:47:55.044Z,15.70
2022-10-05T20:50:22.880Z,15.60
2022-10-05T20:52:50.800Z,15.60
2022-10-05T20:55:20.752Z,15.50
2022-10-05T20:57:49.991Z,15.50
2022-10-05T21:00:17.819Z,15.60
2022-10-05T21:02:46.918Z,15.50
2022-10-05T21:05:15.456Z,15.40
2022-10-05T21:07:43.505Z,15.40
2022-10-05T21:10:12.968Z,15.40
2022-10-05T21:12:41.384Z,15.40
2022-10-05T21:15:10.764Z,15.30
2022-10-05T21:17:40.071Z,15.30
2022-10-05T21:20:11.694Z,15.30
2022-10-05T21:22:39.664Z,15.20
2022-10-05T21:25:09.023Z,15.20
2022-10-05T21:27:36.972Z,15.20
2022-10-05T21:30:05.238Z,15.20
2022-10-05T21:32:34.499Z,15.20
2022-10-05T21:35:02.492Z,15.20
2022-10-05T21:37:30.363Z,15.10
2022-10-05T21:39:58.190Z,15.10
2022-10-05T21:42:26.038Z,15.10
2022-10-05T21:44:53.803Z,15.00
2022-10-05T21:47:21.650Z,15.00
2022-10-05T21:49:51.060Z,15.10
2022-10-05T21:52:19.068Z,15.10
2022-10-05T21:54:47.049Z,15.00
2022-10-05T21:57:15.353Z,15.00
2022-10-05T21:59:44.209Z,15.00
2022-10-05T22:02:12.141Z,15.10
2022-10-05T22:04:40.062Z,15.10
2022-10-05T22:07:18.552Z,15.10
2022-10-05T22:09:47.647Z,15.20
2022-10-05T22:12:17.410Z,15.00
2022-10-05T22:14:45.257Z,15.00
2022-10-05T22:17:15.943Z,15.00
2022-10-05T22:19:43.760Z,15.00
2022-10-05T22:22:13.206Z,15.00
2022-10-05T22:24:41.173Z,14.90
2022-10-05T22:27:09.133Z,14.90
2022-10-05T22:29:37.565Z,14.90
2022-10-05T22:32:05.643Z,14.90
2022-10-05T22:34:33.512Z,14.90
2022-10-05T22:37:03.763Z,14.90
2022-10-05T22:39:33.193Z,14.80
2022-10-05T22:42:01.008Z,14.80
2022-10-05T22:44:28.854Z,14.80
2022-10-05T22:46:56.781Z,14.80
2022-10-05T22:49:25.514Z,14.80
2022-10-05T22:51:53.434Z,14.80
2022-10-05T22:54:21.395Z,14.70
2022-10-05T22:56:50.580Z,14.70
2022-10-05T22:59:18.467Z,14.80
2022-10-05T23:01:46.434Z,14.70
2022-10-05T23:04:14.228Z,14.70
2022-10-05T23:06:42.749Z,14.70
2022-10-05T23:09:10.617Z,14.60
2022-10-05T23:11:38.407Z,14.60
2022-10-05T23:14:08.110Z,14.60
2022-10-05T23:16:35.935Z,14.60
2022-10-05T23:19:03.744Z,14.60
2022-10-05T23:21:31.943Z,14.60
2022-10-05T23:23:59.987Z,14.60
2022-10-05T23:26:27.797Z,14.60
2022-10-05T23:28:55.667Z,14.60
2022-10-05T23:31:26.498Z,14.50
2022-10-05T23:33:54.783Z,14.50
2022-10-05T23:36:25.232Z,14.50
2022-10-05T23:38:53.369Z,14.50
2022-10-05T23:41:21.751Z,14.50
2022-10-05T23:43:50.128Z,14.50
2022-10-05T23:46:18.646Z,14.60
2022-10-05T23:48:50.248Z,14.50
2022-10-05T23:51:18.715Z,14.60
2022-10-05T23:53:46.574Z,14.60
2022-10-05T23:56:14.432Z,14.50
2022-10-05T23:58:42.917Z,14.70
